createdAt,value
2022-09-07T00:01:31.555Z,96737.72
2022-09-07T00:04:01.388Z,96491.25
2022-09-07T00:06:28.207Z,96775.59
2022-09-07T00:08:54.918Z,96734.78
2022-09-07T00:11:21.561Z,96770.91
2022-09-07T00:13:49.441Z,96767.66
2022-09-07T00:16:21.699Z,96740.47
2022-09-07T00:18:48.663Z,96742.94
2022-09-07T00:21:16.887Z,96814.19
2022-09-07T00:23:43.710Z,96653.47
2022-09-07T00:26:17.486Z,96797.06
2022-09-07T00:28:44.462Z,96475.19
2022-09-07T00:31:13.638Z,96809.31
2022-09-07T00:33:40.668Z,96728.28
2022-09-07T00:36:07.328Z,96761.28
2022-09-07T00:38:34.017Z,96579.69
2022-09-07T00:41:00.678Z,96716.25
2022-09-07T00:43:48.711Z,96745.19
2022-09-07T00:46:26.420Z,96608.63
2022-09-07T00:49:09.050Z,96760.31
2022-09-07T00:51:59.233Z,96774.94
2022-09-07T00:54:33.118Z,96769.75
2022-09-07T00:56:59.745Z,96702.41
2022-09-07T00:59:31.246Z,96720.63
2022-09-07T01:01:57.948Z,96778.88
2022-09-07T01:04:24.660Z,96698.69
2022-09-07T01:06:51.541Z,96695.91
2022-09-07T01:09:22.919Z,96713.78
2022-09-07T01:11:51.327Z,96786.53
2022-09-07T01:14:35.596Z,96712.81
2022-09-07T01:17:20.311Z,96786.50
2022-09-07T01:20:05.552Z,96797.56
2022-09-07T01:23:04.688Z,96794.31
2022-09-07T01:25:37.336Z,96786.00
2022-09-07T01:28:24.204Z,96782.59
2022-09-07T01:30:58.770Z,96717.50
2022-09-07T01:33:48.727Z,96773.16
2022-09-07T01:36:36.740Z,96784.56
2022-09-07T01:39:04.487Z,96737.69
2022-09-07T01:41:39.326Z,96721.28
2022-09-07T01:44:31.162Z,96722.09
2022-09-07T01:47:15.994Z,96729.91
2022-09-07T01:49:45.639Z,96764.56
2022-09-07T01:52:19.902Z,96752.53
2022-09-07T01:54:48.640Z,96709.44
2022-09-07T01:57:19.077Z,96721.44
2022-09-07T02:00:04.954Z,96522.94
2022-09-07T02:02:34.615Z,96679.81
2022-09-07T02:05:04.309Z,96758.72
2022-09-07T02:07:35.537Z,96609.88
2022-09-07T02:10:14.722Z,96715.44
2022-09-07T02:12:48.341Z,96594.28
2022-09-07T02:15:39.087Z,96716.09
2022-09-07T02:18:06.006Z,96689.09
2022-09-07T02:20:34.940Z,96775.63
2022-09-07T02:23:05.131Z,96522.28
2022-09-07T02:25:37.858Z,96695.44
2022-09-07T02:28:08.003Z,96698.03
2022-09-07T02:30:35.153Z,96489.97
2022-09-07T02:33:01.778Z,96646.97
2022-09-07T02:35:28.510Z,96740.78
2022-09-07T02:37:55.174Z,96696.91
2022-09-07T02:40:21.868Z,96527.31
2022-09-07T02:42:48.552Z,96738.88
2022-09-07T02:45:15.192Z,96684.06
2022-09-07T02:48:30.204Z,96749.56
2022-09-07T02:51:18.570Z,96759.03
2022-09-07T02:54:08.808Z,96718.22
2022-09-07T02:56:50.512Z,96750.88
2022-09-07T02:59:38.709Z,96752.34
2022-09-07T03:02:10.172Z,96680.16
2022-09-07T03:04:51.222Z,96723.72
2022-09-07T03:07:20.955Z,96718.03
2022-09-07T03:09:50.222Z,96690.88
2022-09-07T03:12:17.366Z,96517.59
2022-09-07T03:14:44.112Z,96480.91
2022-09-07T03:17:10.792Z,96659.97
2022-09-07T03:19:37.741Z,96520.84
2022-09-07T03:22:05.073Z,96620.81
2022-09-07T03:24:31.754Z,96676.72
2022-09-07T03:26:58.607Z,96588.47
2022-09-07T03:29:26.217Z,96662.72
2022-09-07T03:31:53.261Z,96507.69
2022-09-07T03:34:19.908Z,96679.97
2022-09-07T03:36:46.659Z,96653.16
2022-09-07T03:39:14.177Z,96702.88
2022-09-07T03:41:40.960Z,96706.63
2022-09-07T03:44:07.764Z,96682.22
2022-09-07T03:46:34.605Z,96705.28
2022-09-07T03:49:01.496Z,96675.56
2022-09-07T03:51:31.451Z,96748.56
2022-09-07T03:53:59.921Z,96597.72
2022-09-07T03:56:26.773Z,96549.44
2022-09-07T03:58:54.313Z,96486.09
2022-09-07T04:01:22.792Z,96593.50
2022-09-07T04:03:49.491Z,96541.78
2022-09-07T04:06:16.299Z,96507.38
2022-09-07T04:08:43.219Z,96553.19
2022-09-07T04:11:16.132Z,96476.03
2022-09-07T04:13:43.214Z,96588.78
2022-09-07T04:16:23.438Z,96691.16
2022-09-07T04:18:50.527Z,96638.34
2022-09-07T04:21:23.428Z,96533.53
2022-09-07T04:23:50.192Z,96591.88
2022-09-07T04:26:18.895Z,96364.69
2022-09-07T04:28:45.788Z,96560.53
2022-09-07T04:31:16.329Z,96619.66
2022-09-07T04:33:44.217Z,96608.44
2022-09-07T04:36:11.117Z,96573.66
2022-09-07T04:38:40.010Z,96467.41
2022-09-07T04:41:09.504Z,96641.38
2022-09-07T04:43:37.136Z,96620.09
2022-09-07T04:46:05.088Z,96631.78
2022-09-07T04:48:31.955Z,96631.31
2022-09-07T04:51:08.933Z,96687.84
2022-09-07T04:53:36.386Z,96680.56
2022-09-07T04:56:03.256Z,96640.53
2022-09-07T04:58:30.152Z,96599.28
2022-09-07T05:01:04.458Z,96616.78
2022-09-07T05:03:31.545Z,96531.06
2022-09-07T05:06:01.139Z,96601.66
2022-09-07T05:08:28.008Z,96478.47
2022-09-07T05:10:55.148Z,96474.38
2022-09-07T05:13:21.838Z,96555.56
2022-09-07T05:15:48.501Z,96643.09
2022-09-07T05:18:15.218Z,96529.25
2022-09-07T05:20:41.972Z,96684.81
2022-09-07T05:23:09.183Z,96669.09
2022-09-07T05:25:36.085Z,96712.78
2022-09-07T05:28:03.902Z,96655.56
2022-09-07T05:33:17.312Z,96621.25
2022-09-07T05:35:43.991Z,96640.13
2022-09-07T05:38:10.627Z,96660.41
2022-09-07T05:40:40.689Z,96507.28
2022-09-07T05:43:09.919Z,96664.13
2022-09-07T05:45:36.677Z,96613.56
2022-09-07T05:48:03.379Z,96669.50
2022-09-07T05:50:30.034Z,96535.50
2022-09-07T05:52:56.711Z,96624.41
2022-09-07T05:56:05.132Z,96736.53
2022-09-07T05:58:57.607Z,96739.63
2022-09-07T06:01:24.240Z,96466.25
2022-09-07T06:03:50.856Z,96655.78
2022-09-07T06:06:19.063Z,96533.47
2022-09-07T06:08:47.497Z,96724.19
2022-09-07T06:11:16.690Z,96639.41
2022-09-07T06:13:43.361Z,96611.94
2022-09-07T06:16:10.858Z,96687.78
2022-09-07T06:18:42.440Z,96597.06
2022-09-07T06:21:13.597Z,96572.59
2022-09-07T06:23:40.895Z,96509.81
2022-09-07T06:26:07.913Z,96447.28
2022-09-07T06:28:36.200Z,96694.28
2022-09-07T06:31:04.417Z,96538.50
2022-09-07T06:33:31.100Z,96476.72
2022-09-07T06:35:58.787Z,96716.09
2022-09-07T06:38:29.976Z,96646.00
2022-09-07T06:43:56.265Z,96546.53
2022-09-07T06:49:10.009Z,96691.59
2022-09-07T06:51:36.700Z,96710.81
2022-09-07T06:56:52.226Z,96644.72
2022-09-07T06:59:19.204Z,96687.94
2022-09-07T07:01:46.446Z,96653.00
2022-09-07T07:04:13.429Z,96620.34
2022-09-07T07:06:40.291Z,96693.69
2022-09-07T07:09:08.386Z,96705.84
2022-09-07T07:11:37.215Z,96513.06
2022-09-07T07:14:04.012Z,96710.69
2022-09-07T07:16:30.786Z,96590.44
2022-09-07T07:18:58.284Z,96710.28
2022-09-07T07:21:24.929Z,96520.50
2022-09-07T07:23:52.410Z,96592.03
2022-09-07T07:26:20.968Z,96608.59
2022-09-07T07:29:06.567Z,96679.97
2022-09-07T07:31:34.693Z,96538.09
2022-09-07T07:34:01.458Z,96570.81
2022-09-07T07:36:28.293Z,96735.31
2022-09-07T07:44:14.517Z,96579.50
2022-09-07T07:46:41.533Z,96581.88
2022-09-07T07:49:08.222Z,96507.19
2022-09-07T07:52:49.909Z,96560.25
2022-09-07T07:54:21.569Z,96568.69
2022-09-07T07:56:48.228Z,96648.84
2022-09-07T07:59:15.906Z,96468.53
2022-09-07T08:01:43.971Z,96521.00
2022-09-07T08:04:10.735Z,96612.13
2022-09-07T08:06:38.145Z,96721.09
2022-09-07T08:09:04.723Z,96626.00
2022-09-07T08:11:31.714Z,96668.31
2022-09-07T08:14:00.366Z,96612.75
2022-09-07T08:16:27.106Z,96608.69
2022-09-07T08:18:53.847Z,96686.63
2022-09-07T08:21:20.479Z,96610.41
2022-09-07T08:23:47.100Z,96566.72
2022-09-07T08:26:13.741Z,96602.91
2022-09-07T08:28:41.288Z,96649.91
2022-09-07T08:31:09.190Z,96625.66
2022-09-07T08:33:39.050Z,96609.53
2022-09-07T08:36:07.786Z,96554.44
2022-09-07T08:38:35.223Z,96606.69
2022-09-07T08:41:02.068Z,96531.44
2022-09-07T08:43:51.195Z,96538.72
2022-09-07T08:46:29.796Z,96730.31
2022-09-07T08:48:56.527Z,96667.91
2022-09-07T08:52:06.125Z,96639.63
2022-09-07T08:54:33.195Z,96699.94
2022-09-07T08:59:51.914Z,96609.00
2022-09-07T09:02:40.275Z,96571.25
2022-09-07T09:05:21.209Z,96611.78
2022-09-07T09:07:55.251Z,96493.00
2022-09-07T09:11:09.686Z,96581.69
2022-09-07T09:13:59.842Z,96646.94
2022-09-07T09:16:54.273Z,96718.69
2022-09-07T09:19:55.671Z,96721.44
2022-09-07T09:22:23.976Z,96626.03
2022-09-07T09:25:13.678Z,96577.63
2022-09-07T09:27:40.503Z,96542.34
2022-09-07T09:30:14.869Z,96579.69
2022-09-07T09:32:43.238Z,96594.19
2022-09-07T09:35:36.287Z,96697.44
2022-09-07T09:38:03.811Z,96598.91
2022-09-07T09:40:32.297Z,96581.06
2022-09-07T09:43:24.029Z,96712.66
2022-09-07T09:48:42.141Z,96481.75
2022-09-07T09:54:20.935Z,96649.50
2022-09-07T09:56:49.070Z,96605.00
2022-09-07T10:05:39.833Z,96715.91
2022-09-07T10:08:18.161Z,96630.91
2022-09-07T10:11:19.872Z,96702.16
2022-09-07T10:13:57.874Z,96622.34
2022-09-07T10:16:39.412Z,96679.78
2022-09-07T10:19:06.015Z,96631.38
2022-09-07T10:21:32.855Z,96662.78
2022-09-07T10:24:05.281Z,96698.19
2022-09-07T10:26:36.335Z,96550.38
2022-09-07T10:29:26.207Z,96697.97
2022-09-07T10:32:18.517Z,96695.56
2022-09-07T10:35:09.869Z,96692.66
2022-09-07T10:37:45.583Z,96702.38
2022-09-07T10:40:44.461Z,96694.16
2022-09-07T10:43:21.868Z,96690.88
2022-09-07T10:52:49.339Z,96701.72
2022-09-07T10:55:31.879Z,96637.09
2022-09-07T10:58:17.626Z,96628.66
2022-09-07T11:01:07.619Z,96691.19
2022-09-07T11:04:14.337Z,96687.56
2022-09-07T11:06:45.605Z,96698.84
2022-09-07T11:09:41.540Z,96691.59
2022-09-07T11:12:15.706Z,96652.84
2022-09-07T11:14:46.315Z,96626.78
2022-09-07T11:17:15.791Z,96466.47
2022-09-07T11:19:50.294Z,96594.66
2022-09-07T11:22:25.784Z,96674.72
2022-09-07T11:27:56.495Z,96679.75
2022-09-07T11:30:35.771Z,96580.41
2022-09-07T11:33:10.258Z,96670.56
2022-09-07T11:35:45.280Z,96543.31
2022-09-07T11:38:35.863Z,96658.72
2022-09-07T11:41:02.791Z,96657.66
2022-09-07T11:43:38.396Z,96584.22
2022-09-07T11:46:14.986Z,96447.88
2022-09-07T11:48:48.576Z,96503.19
2022-09-07T11:51:24.745Z,96619.34
2022-09-07T11:53:54.167Z,96549.56
2022-09-07T11:56:28.478Z,96532.56
2022-09-07T11:59:23.526Z,96655.50
2022-09-07T12:02:48.438Z,96653.16
2022-09-07T12:05:20.832Z,96499.72
2022-09-07T12:08:45.975Z,96658.50
2022-09-07T12:11:31.311Z,96509.22
2022-09-07T12:14:39.376Z,96658.38
2022-09-07T12:17:08.600Z,96644.03
2022-09-07T12:19:35.256Z,96525.63
2022-09-07T12:22:02.132Z,96630.13
2022-09-07T12:24:42.153Z,96550.97
2022-09-07T12:27:20.867Z,96635.91
2022-09-07T12:30:11.327Z,96558.75
2022-09-07T12:32:55.382Z,96623.22
2022-09-07T12:35:28.850Z,96622.41
2022-09-07T12:37:56.242Z,96519.06
2022-09-07T12:40:28.995Z,96624.63
2022-09-07T12:43:14.048Z,96626.50
2022-09-07T12:45:40.586Z,96627.31
2022-09-07T12:48:16.348Z,96625.22
2022-09-07T12:51:59.696Z,96624.97
2022-09-07T12:54:23.451Z,96625.50
2022-09-07T13:00:05.666Z,96550.63
2022-09-07T13:02:55.980Z,96622.09
2022-09-07T13:05:29.306Z,96622.63
2022-09-07T13:08:07.241Z,96612.47
2022-09-07T13:10:36.741Z,96515.72
2022-09-07T13:16:13.876Z,96619.84
2022-09-07T13:18:42.528Z,96555.34
2022-09-07T13:21:09.014Z,96620.56
2022-09-07T13:23:39.609Z,96384.25
2022-09-07T13:26:08.168Z,96598.66
2022-09-07T13:28:47.507Z,96617.31
2022-09-07T13:31:25.266Z,96484.69
2022-09-07T13:33:52.787Z,96583.81
2022-09-07T13:36:44.912Z,96612.44
2022-09-07T13:39:15.943Z,96560.16
2022-09-07T13:41:46.576Z,96566.44
2022-09-07T13:44:32.530Z,96550.22
2022-09-07T13:47:09.633Z,96599.13
2022-09-07T13:49:51.340Z,96587.88
2022-09-07T13:52:42.198Z,96583.53
2022-09-07T13:55:33.764Z,96496.47
2022-09-07T13:58:18.163Z,96513.41
2022-09-07T14:00:55.520Z,96468.34
2022-09-07T14:03:40.414Z,96499.03
2022-09-07T14:06:21.935Z,96573.50
2022-09-07T14:08:52.655Z,96537.13
2022-09-07T14:11:21.009Z,96544.19
2022-09-07T14:14:16.444Z,96440.09
2022-09-07T14:17:02.710Z,96553.63
2022-09-07T14:19:45.171Z,96515.91
2022-09-07T14:22:18.874Z,96514.59
2022-09-07T14:24:51.513Z,96566.63
2022-09-07T14:27:21.220Z,96562.72
2022-09-07T14:29:47.906Z,96489.47
2022-09-07T14:32:20.443Z,96332.38
2022-09-07T14:34:47.236Z,96522.84
2022-09-07T14:37:17.734Z,96431.16
2022-09-07T14:39:46.476Z,96460.13
2022-09-07T14:42:15.482Z,96535.75
2022-09-07T14:44:45.437Z,96385.09
2022-09-07T14:47:29.425Z,96441.44
2022-09-07T14:49:58.202Z,96398.75
2022-09-07T14:52:40.680Z,96412.63
2022-09-07T14:55:33.126Z,96553.88
2022-09-07T14:58:14.960Z,96558.56
2022-09-07T15:00:45.984Z,96556.88
2022-09-07T15:03:42.412Z,96556.03
2022-09-07T15:07:00.524Z,96301.59
2022-09-07T15:08:57.715Z,96480.97
2022-09-07T15:11:35.414Z,96458.38
2022-09-07T15:14:08.646Z,96556.25
2022-09-07T15:16:38.399Z,96493.50
2022-09-07T15:19:17.252Z,96451.03
2022-09-07T15:21:44.161Z,96537.41
2022-09-07T15:24:10.901Z,96397.25
2022-09-07T15:29:29.069Z,96461.13
2022-09-07T15:32:03.528Z,96461.25
2022-09-07T15:34:32.505Z,96486.94
2022-09-07T15:37:01.032Z,96490.88
2022-09-07T15:39:29.771Z,96378.41
2022-09-07T15:41:57.293Z,96500.34
2022-09-07T15:44:26.293Z,96503.38
2022-09-07T15:49:47.425Z,96458.94
2022-09-07T15:52:16.820Z,96524.22
2022-09-07T15:54:43.928Z,96520.69
2022-09-07T15:59:57.488Z,96483.38
2022-09-07T16:05:11.086Z,96461.44
2022-09-07T16:14:12.843Z,96427.28
2022-09-07T16:19:27.753Z,96244.84
2022-09-07T16:21:57.521Z,96464.09
2022-09-07T16:24:24.598Z,96503.59
2022-09-07T16:26:51.219Z,96459.09
2022-09-07T16:29:17.979Z,96465.78
2022-09-07T16:34:31.303Z,96409.56
2022-09-07T16:36:57.992Z,96417.38
2022-09-07T16:39:24.661Z,96249.09
2022-09-07T16:41:51.260Z,96515.13
2022-09-07T16:44:18.034Z,96436.97
2022-09-07T16:46:44.621Z,96376.13
2022-09-07T16:49:11.447Z,96453.09
2022-09-07T16:51:38.434Z,96327.63
2022-09-07T16:54:06.304Z,96411.47
2022-09-07T16:56:38.241Z,96315.44
2022-09-07T16:59:06.495Z,96372.13
2022-09-07T17:01:34.693Z,96279.31
2022-09-07T17:04:04.351Z,96525.94
2022-09-07T17:06:33.383Z,96390.72
2022-09-07T17:09:00.308Z,96509.22
2022-09-07T17:11:29.602Z,96392.84
2022-09-07T17:13:56.962Z,96499.16
2022-09-07T17:16:29.984Z,96441.00
2022-09-07T17:21:46.207Z,96368.34
2022-09-07T17:24:13.096Z,96374.69
2022-09-07T17:26:42.306Z,96386.03
2022-09-07T17:29:09.111Z,96355.00
2022-09-07T17:34:23.683Z,96368.94
2022-09-07T17:36:50.697Z,96401.88
2022-09-07T17:39:19.270Z,96219.28
2022-09-07T17:41:47.768Z,96455.16
2022-09-07T17:44:14.413Z,96391.28
2022-09-07T17:46:41.024Z,96366.72
2022-09-07T17:49:10.359Z,96473.81
2022-09-07T17:51:37.131Z,96461.94
2022-09-07T17:54:12.725Z,96416.38
2022-09-07T17:56:41.003Z,96305.63
2022-09-07T18:01:55.112Z,96420.41
2022-09-07T18:04:21.858Z,96397.56
2022-09-07T18:06:48.588Z,96332.38
2022-09-07T18:09:15.308Z,96460.53
2022-09-07T18:11:45.731Z,96309.13
2022-09-07T18:14:14.545Z,96247.75
2022-09-07T18:16:41.648Z,96478.69
2022-09-07T18:19:08.709Z,96311.47
2022-09-07T18:21:36.245Z,96299.59
2022-09-07T18:24:05.109Z,96391.03
2022-09-07T18:26:32.298Z,96405.41
2022-09-07T18:29:18.798Z,96190.22
2022-09-07T18:31:46.176Z,96410.59
2022-09-07T18:34:12.974Z,96378.13
2022-09-07T18:36:43.714Z,96417.47
2022-09-07T18:39:10.924Z,96492.97
2022-09-07T18:41:40.813Z,96512.38
2022-09-07T18:45:27.296Z,96287.06
2022-09-07T18:46:54.655Z,96364.94
2022-09-07T18:49:21.270Z,96388.19
2022-09-07T18:54:34.541Z,96414.13
2022-09-07T18:57:01.175Z,96480.38
2022-09-07T18:59:28.093Z,96465.09
2022-09-07T19:02:01.315Z,96518.28
2022-09-07T19:05:49.475Z,96476.41
2022-09-07T19:07:17.113Z,96572.19
2022-09-07T19:09:44.683Z,96519.81
2022-09-07T19:12:11.294Z,96548.31
2022-09-07T19:14:37.921Z,96513.72
2022-09-07T19:17:04.781Z,96322.63
2022-09-07T19:19:33.068Z,96477.22
2022-09-07T19:22:01.589Z,96413.38
2022-09-07T19:24:31.826Z,96558.47
2022-09-07T19:27:00.665Z,96555.63
2022-09-07T19:29:27.842Z,96337.75
2022-09-07T19:32:07.685Z,96303.75
2022-09-07T19:34:34.849Z,96544.81
2022-09-07T19:37:02.040Z,96542.06
2022-09-07T19:39:28.688Z,96362.22
2022-09-07T19:41:55.502Z,96513.09
2022-09-07T19:44:22.137Z,96487.81
2022-09-07T19:46:49.042Z,96471.72
2022-09-07T19:49:15.777Z,96444.69
2022-09-07T19:51:42.599Z,96497.22
2022-09-07T19:54:15.137Z,96423.31
2022-09-07T19:56:42.821Z,96418.69
2022-09-07T19:59:09.553Z,96324.28
2022-09-07T20:01:36.343Z,96376.63
2022-09-07T20:04:05.046Z,96415.47
2022-09-07T20:06:35.069Z,96509.97
2022-09-07T20:09:01.901Z,96451.31
2022-09-07T20:11:31.282Z,96397.56
2022-09-07T20:13:58.015Z,96362.19
2022-09-07T20:16:24.934Z,96242.41
2022-09-07T20:18:51.728Z,96414.84
2022-09-07T20:21:20.636Z,96376.00
2022-09-07T20:23:47.417Z,96393.84
2022-09-07T20:26:15.381Z,96536.59
2022-09-07T20:28:42.439Z,96372.38
2022-09-07T20:31:16.199Z,96382.63
2022-09-07T20:33:43.338Z,96347.94
2022-09-07T20:36:12.518Z,96427.13
2022-09-07T20:38:43.363Z,96416.84
2022-09-07T20:41:14.050Z,96479.81
2022-09-07T20:43:40.667Z,96390.31
2022-09-07T20:46:09.778Z,96448.25
2022-09-07T20:48:39.816Z,96442.44
2022-09-07T20:51:09.578Z,96392.06
2022-09-07T20:53:36.846Z,96319.44
2022-09-07T20:56:19.589Z,96552.66
2022-09-07T20:58:46.980Z,96374.09
2022-09-07T21:01:15.118Z,96543.31
2022-09-07T21:03:49.092Z,96303.09
2022-09-07T21:06:16.286Z,96462.63
2022-09-07T21:08:43.371Z,96377.63
2022-09-07T21:11:15.210Z,96373.56
2022-09-07T21:13:42.273Z,96490.25
2022-09-07T21:16:10.708Z,96521.25
2022-09-07T21:19:19.995Z,96540.31
2022-09-07T21:21:46.591Z,96405.47
2022-09-07T21:24:21.349Z,96434.09
2022-09-07T21:26:48.297Z,96369.53
2022-09-07T21:29:24.520Z,96241.22
2022-09-07T21:31:52.915Z,96309.28
2022-09-07T21:34:19.719Z,96531.84
2022-09-07T21:36:46.363Z,96328.69
2022-09-07T21:39:14.834Z,96309.28
2022-09-07T21:41:42.128Z,96285.22
2022-09-07T21:44:11.145Z,96367.81
2022-09-07T21:46:37.790Z,96338.13
2022-09-07T21:49:04.922Z,96351.81
2022-09-07T21:51:32.008Z,96119.75
2022-09-07T21:53:59.951Z,96310.16
2022-09-07T21:56:28.826Z,96333.81
2022-09-07T21:58:56.770Z,96268.34
2022-09-07T22:01:23.931Z,96337.41
2022-09-07T22:03:58.387Z,96336.25
2022-09-07T22:06:25.295Z,96289.09
2022-09-07T22:08:51.943Z,96312.59
2022-09-07T22:11:20.352Z,96337.03
2022-09-07T22:13:47.048Z,96303.13
2022-09-07T22:16:14.075Z,96287.41
2022-09-07T22:18:43.625Z,96436.34
2022-09-07T22:21:15.374Z,96212.06
2022-09-07T22:23:45.569Z,96432.22
2022-09-07T22:26:12.531Z,96290.50
2022-09-07T22:28:39.158Z,96408.72
2022-09-07T22:31:08.732Z,96512.34
2022-09-07T22:33:35.375Z,96183.56
2022-09-07T22:36:18.327Z,96502.84
2022-09-07T22:38:45.882Z,96286.16
2022-09-07T22:41:14.512Z,96449.31
2022-09-07T22:43:41.479Z,96451.00
2022-09-07T22:51:37.778Z,96464.41
2022-09-07T22:54:05.071Z,96385.50
2022-09-07T22:56:32.454Z,96378.69
2022-09-07T22:59:03.944Z,96258.97
2022-09-07T23:01:30.957Z,96342.31
2022-09-07T23:03:58.020Z,96386.22
2022-09-07T23:06:26.418Z,96289.34
2022-09-07T23:08:54.014Z,96302.44
2022-09-07T23:11:20.872Z,96247.59
2022-09-07T23:13:54.738Z,96423.28
2022-09-07T23:16:21.719Z,96384.97
2022-09-07T23:18:48.520Z,96307.13
2022-09-07T23:21:15.182Z,96262.09
2022-09-07T23:23:41.792Z,96318.06
2022-09-07T23:26:29.152Z,96470.63
2022-09-07T23:28:59.926Z,96445.00
2022-09-07T23:31:26.961Z,96281.63
2022-09-07T23:33:53.645Z,96362.59
2022-09-07T23:36:20.364Z,96470.53
2022-09-07T23:38:47.030Z,96401.28
2022-09-07T23:41:14.270Z,96446.16
2022-09-07T23:43:41.023Z,96249.38
2022-09-07T23:46:07.717Z,96284.22
2022-09-07T23:48:34.395Z,96279.00
2022-09-07T23:51:01.028Z,96289.03
2022-09-07T23:53:27.772Z,96187.97
2022-09-07T23:55:54.569Z,96234.81
2022-09-07T23:58:21.493Z,96293.81
